createdAt,value
2022-08-09T00:01:43.064Z,101111.03
2022-08-09T00:06:52.047Z,101149.66
2022-08-09T00:12:03.254Z,101121.91
2022-08-09T00:17:04.111Z,101137.50
2022-08-09T00:22:04.431Z,101112.38
2022-08-09T00:27:02.630Z,101157.19
2022-08-09T00:32:02.733Z,101120.00
2022-08-09T00:37:03.061Z,101166.66
2022-08-09T00:44:13.011Z,101172.69
2022-08-09T00:47:29.902Z,101133.50
2022-08-09T00:52:35.185Z,101142.38
2022-08-09T00:57:35.807Z,101159.63
2022-08-09T01:02:35.216Z,101141.78
2022-08-09T01:08:02.867Z,101173.59
2022-08-09T01:13:58.655Z,101151.28
2022-08-09T01:19:04.912Z,101170.75
2022-08-09T01:24:55.347Z,101174.50
2022-08-09T01:30:07.145Z,101152.75
2022-08-09T01:35:28.382Z,101164.94
2022-08-09T01:40:31.257Z,101126.72
2022-08-09T01:45:31.006Z,101130.38
2022-08-09T01:50:36.624Z,101116.41
2022-08-09T01:55:42.554Z,101115.41
2022-08-09T02:00:42.906Z,101145.22
2022-08-09T02:06:03.527Z,101141.78
2022-08-09T02:11:16.766Z,101150.53
2022-08-09T02:16:16.789Z,101135.00
2022-08-09T02:21:22.382Z,101172.66
2022-08-09T02:26:27.410Z,101120.13
2022-08-09T02:31:35.669Z,101159.97
2022-08-09T02:36:38.517Z,101143.16
2022-08-09T02:41:57.067Z,101129.69
2022-08-09T02:46:58.159Z,101121.69
2022-08-09T02:52:22.201Z,101159.41
2022-08-09T02:57:23.237Z,101135.09
2022-08-09T03:02:24.007Z,101150.63
2022-08-09T03:07:24.334Z,101144.53
2022-08-09T03:12:25.051Z,101162.13
2022-08-09T03:17:30.477Z,101122.59
2022-08-09T03:22:31.132Z,101136.63
2022-08-09T03:27:29.927Z,101142.88
2022-08-09T03:32:50.499Z,101162.81
2022-08-09T03:37:55.857Z,101174.66
2022-08-09T03:42:57.717Z,101148.91
2022-08-09T03:47:56.648Z,101154.75
2022-08-09T03:53:00.567Z,101151.31
2022-08-09T03:58:14.920Z,101166.56
2022-08-09T04:03:24.514Z,101141.06
2022-08-09T04:08:35.854Z,101143.59
2022-08-09T04:14:36.600Z,101135.44
2022-08-09T04:19:11.180Z,101157.22
2022-08-09T04:24:30.172Z,101154.66
2022-08-09T04:29:32.152Z,101157.94
2022-08-09T04:34:33.685Z,101152.06
2022-08-09T04:39:33.399Z,101168.59
2022-08-09T04:44:49.358Z,101169.50
2022-08-09T04:49:54.604Z,101158.91
2022-08-09T04:54:55.175Z,101157.41
2022-08-09T04:59:55.502Z,101149.72
2022-08-09T05:04:55.641Z,101188.50
2022-08-09T05:09:54.235Z,101170.59
2022-08-09T05:14:54.454Z,101172.41
2022-08-09T05:19:56.872Z,101160.41
2022-08-09T05:24:57.381Z,101169.81
2022-08-09T05:30:05.288Z,101172.78
2022-08-09T05:35:05.962Z,101172.34
2022-08-09T05:40:07.967Z,101172.50
2022-08-09T05:45:07.391Z,101184.34
2022-08-09T05:50:32.158Z,101178.19
2022-08-09T05:55:29.310Z,101168.22
2022-08-09T06:00:32.915Z,101194.47
2022-08-09T06:05:56.969Z,101209.72
2022-08-09T06:10:53.183Z,101185.09
2022-08-09T06:15:53.013Z,101197.97
2022-08-09T06:20:57.299Z,101195.50
2022-08-09T06:25:56.760Z,101204.34
2022-08-09T06:30:55.680Z,101197.53
2022-08-09T06:35:57.313Z,101192.31
2022-08-09T06:40:57.222Z,101204.19
2022-08-09T06:46:07.003Z,101191.75
2022-08-09T06:51:11.108Z,101199.41
2022-08-09T06:56:12.102Z,101218.78
2022-08-09T07:01:15.637Z,101225.22
2022-08-09T07:06:17.905Z,101215.13
2022-08-09T07:11:23.791Z,101223.47
2022-08-09T07:16:41.951Z,101206.69
2022-08-09T07:21:55.910Z,101203.72
2022-08-09T07:26:59.414Z,101214.97
2022-08-09T07:32:01.421Z,101241.88
2022-08-09T07:37:02.733Z,101216.69
2022-08-09T07:42:03.312Z,101214.28
2022-08-09T07:47:04.167Z,101223.16
2022-08-09T07:52:17.247Z,101196.59
2022-08-09T07:57:18.457Z,101188.84
2022-08-09T08:02:24.201Z,101200.63
2022-08-09T08:08:43.837Z,101194.94
2022-08-09T08:12:47.202Z,101179.41
2022-08-09T08:17:53.275Z,101199.84
2022-08-09T08:22:58.761Z,101189.00
2022-08-09T08:28:32.727Z,101202.41
2022-08-09T08:33:40.664Z,101182.84
2022-08-09T08:38:56.882Z,101196.41
2022-08-09T08:44:02.494Z,101165.28
2022-08-09T08:49:03.164Z,101178.59
2022-08-09T08:54:10.286Z,101169.97
2022-08-09T08:59:20.786Z,101146.44
2022-08-09T09:04:37.752Z,101140.97
2022-08-09T09:10:01.740Z,101161.09
2022-08-09T09:15:02.384Z,101150.44
2022-08-09T09:20:01.910Z,101137.53
2022-08-09T09:26:01.461Z,101133.38
2022-08-09T09:30:37.996Z,101134.97
2022-08-09T09:36:20.029Z,101140.19
2022-08-09T09:41:49.875Z,101147.19
2022-08-09T09:47:07.750Z,101128.19
2022-08-09T09:52:33.412Z,101107.81
2022-08-09T09:58:04.103Z,101120.78
2022-08-09T10:02:57.852Z,101090.78
2022-08-09T10:08:27.585Z,101101.47
2022-08-09T10:13:45.088Z,101096.03
2022-08-09T10:18:54.350Z,101082.59
2022-08-09T10:23:56.953Z,101085.97
2022-08-09T10:29:21.278Z,101066.88
2022-08-09T10:34:33.603Z,101087.72
2022-08-09T10:39:48.949Z,101086.84
2022-08-09T10:44:55.286Z,101057.38
2022-08-09T10:50:26.997Z,101081.25
2022-08-09T10:55:35.811Z,101049.88
2022-08-09T11:03:02.837Z,101044.44
2022-08-09T11:06:23.582Z,101064.22
2022-08-09T11:11:24.650Z,101037.84
2022-08-09T11:16:37.400Z,101059.59
2022-08-09T11:22:05.525Z,101046.88
2022-08-09T11:28:04.883Z,101016.97
2022-08-09T11:33:17.607Z,101030.56
2022-08-09T11:38:28.621Z,101037.97
2022-08-09T11:43:49.063Z,101018.56
2022-08-09T11:48:50.817Z,101002.16
2022-08-09T11:53:58.485Z,100990.06
2022-08-09T11:59:00.735Z,100987.81
2022-08-09T12:04:23.661Z,100962.84
2022-08-09T12:09:33.504Z,100969.09
2022-08-09T12:14:36.946Z,100961.75
2022-08-09T12:19:40.162Z,100974.28
2022-08-09T12:24:39.893Z,100960.56
2022-08-09T12:29:53.980Z,100953.78
2022-08-09T12:35:10.911Z,100933.78
2022-08-09T12:40:18.940Z,100931.50
2022-08-09T12:45:33.485Z,100943.09
2022-08-09T12:50:36.100Z,100926.28
2022-08-09T12:56:15.442Z,100926.91
2022-08-09T13:00:56.590Z,100915.84
2022-08-09T13:06:14.387Z,100924.53
2022-08-09T13:11:25.924Z,100902.19
2022-08-09T13:16:41.760Z,100917.31
2022-08-09T13:22:37.482Z,100883.50
2022-08-09T13:27:04.731Z,100876.28
2022-08-09T13:32:17.189Z,100894.69
2022-08-09T13:37:50.680Z,100897.94
2022-08-09T13:42:38.660Z,100912.47
2022-08-09T13:47:44.213Z,100909.59
2022-08-09T13:52:49.129Z,100894.34
2022-08-09T13:57:56.161Z,100898.75
2022-08-09T14:03:04.113Z,100892.84
2022-08-09T14:08:19.380Z,100890.72
2022-08-09T14:14:15.029Z,100892.25
2022-08-09T14:18:43.172Z,100891.63
2022-08-09T14:23:55.337Z,100898.69
2022-08-09T14:28:56.291Z,100865.47
2022-08-09T14:33:54.775Z,100868.19
2022-08-09T14:38:53.187Z,100884.38
2022-08-09T14:43:53.611Z,100861.34
2022-08-09T14:48:52.371Z,100860.66
2022-08-09T14:53:52.349Z,100864.16
2022-08-09T14:58:56.130Z,100884.59
2022-08-09T15:03:55.481Z,100874.69
2022-08-09T15:08:56.493Z,100879.50
2022-08-09T15:14:01.612Z,100895.00
2022-08-09T15:19:15.981Z,100918.72
2022-08-09T15:24:23.395Z,100921.19
2022-08-09T15:30:57.010Z,100911.41
2022-08-09T15:34:52.471Z,100895.53
2022-08-09T15:39:53.756Z,100886.38
2022-08-09T15:44:53.406Z,100900.09
2022-08-09T15:50:04.130Z,100918.66
2022-08-09T15:55:10.493Z,100857.25
2022-08-09T16:00:14.691Z,100905.22
2022-08-09T16:05:17.006Z,100887.31
2022-08-09T16:10:17.298Z,100881.00
2022-08-09T16:16:10.585Z,100877.22
2022-08-09T16:21:05.619Z,100891.94
2022-08-09T16:26:06.102Z,100887.31
2022-08-09T16:32:10.428Z,100899.19
2022-08-09T16:36:50.992Z,100925.94
2022-08-09T16:42:03.638Z,100906.84
2022-08-09T16:48:39.114Z,100911.09
2022-08-09T16:52:32.325Z,100887.47
2022-08-09T16:58:07.977Z,100894.94
2022-08-09T17:02:51.788Z,100902.41
2022-08-09T17:08:44.322Z,100892.25
2022-08-09T17:13:22.714Z,100904.91
2022-08-09T17:18:27.051Z,100919.19
2022-08-09T17:24:20.708Z,100928.06
2022-08-09T17:28:49.782Z,100911.97
2022-08-09T17:33:53.411Z,100928.66
2022-08-09T17:38:57.553Z,100893.88
2022-08-09T17:44:47.105Z,100898.66
2022-08-09T17:49:33.065Z,100937.25
2022-08-09T17:54:42.721Z,100964.59
2022-08-09T17:59:43.778Z,100968.00
2022-08-09T18:05:13.017Z,100987.19
2022-08-09T18:10:11.835Z,100998.44
2022-08-09T18:15:11.969Z,100978.91
2022-08-09T18:20:56.207Z,100995.25
2022-08-09T18:25:45.513Z,101000.09
2022-08-09T18:30:51.687Z,101012.06
2022-08-09T18:35:59.296Z,100974.69
2022-08-09T18:41:00.171Z,100998.38
2022-08-09T18:46:49.611Z,101007.09
2022-08-09T18:51:19.037Z,100992.31
2022-08-09T18:56:41.433Z,101010.00
2022-08-09T19:01:46.002Z,100987.41
2022-08-09T19:06:48.840Z,101006.59
2022-08-09T19:11:52.866Z,101002.16
2022-08-09T19:16:52.065Z,100985.88
2022-08-09T19:22:04.637Z,100999.53
2022-08-09T19:27:07.690Z,100961.25
2022-08-09T19:32:12.096Z,100981.13
2022-08-09T19:37:17.198Z,101000.72
2022-08-09T19:42:28.380Z,100973.38
2022-08-09T19:47:30.460Z,100999.53
2022-08-09T19:52:51.414Z,101024.94
2022-08-09T19:58:42.965Z,101019.41
2022-08-09T20:04:10.150Z,101091.81
2022-08-09T20:09:44.602Z,101066.03
2022-08-09T20:14:50.292Z,101073.25
2022-08-09T20:19:54.208Z,101091.19
2022-08-09T20:24:54.626Z,101091.44
2022-08-09T20:29:57.646Z,101088.69
2022-08-09T20:34:55.345Z,101094.69
2022-08-09T20:40:14.705Z,101125.78
2022-08-09T20:45:59.418Z,101114.13
2022-08-09T20:50:47.066Z,101125.31
2022-08-09T20:56:02.187Z,101121.88
2022-08-09T21:01:33.186Z,101139.09
2022-08-09T21:06:25.925Z,101120.94
2022-08-09T21:16:48.257Z,101127.66
2022-08-09T21:21:56.515Z,101142.94
2022-08-09T21:26:57.139Z,101142.72
2022-08-09T21:31:56.385Z,101118.34
2022-08-09T21:36:56.523Z,101134.69
2022-08-09T21:42:03.855Z,101095.09
2022-08-09T21:47:17.556Z,101117.75
2022-08-09T21:52:20.488Z,101130.38
2022-08-09T21:57:37.236Z,101141.41
2022-08-09T22:02:40.292Z,101130.19
2022-08-09T22:07:52.045Z,101158.00
2022-08-09T22:12:53.623Z,101134.72
2022-08-09T22:17:52.498Z,101150.84
2022-08-09T22:22:51.634Z,101140.47
2022-08-09T22:27:49.818Z,101137.44
2022-08-09T22:32:50.549Z,101127.25
2022-08-09T22:37:48.406Z,101122.84
2022-08-09T22:43:16.131Z,101125.84
2022-08-09T22:48:35.306Z,101101.03
2022-08-09T22:54:02.363Z,101113.78
2022-08-09T22:59:55.532Z,101090.06
2022-08-09T23:04:25.764Z,101106.53
2022-08-09T23:09:24.530Z,101088.63
2022-08-09T23:14:36.261Z,101082.84
2022-08-09T23:20:06.522Z,101068.03
2022-08-09T23:25:00.722Z,101083.97
2022-08-09T23:30:00.323Z,101087.59
2022-08-09T23:34:58.255Z,101091.44
2022-08-09T23:39:57.051Z,101087.34
2022-08-09T23:45:07.318Z,101079.03
2022-08-09T23:50:07.369Z,101084.97
2022-08-09T23:55:08.190Z,101102.84
